Flight Track Log - Related Links

Times and Time Zones

All times are in EDT time to prevent confusion due to time zone crossing. See the N569TA flight status page for this flight to view local times or setup timezone preferences in your user account.

Time Position Orientation Groundspeed Altitude Reporting Facility
EDT Latitude Longitude Course Direction KTS MPH feet Rate Location/Type
Sun 12:08:01 PM 38.6361 -106.6297 63° Northeast 286 329 14,900  Level Denver Center
Sun 12:09:03 PM 38.6703 -106.5442 63° Northeast 271 312 16,700 1,597 Climbing Denver Center
Sun 12:10:05 PM 38.7064 -106.4511 64° Northeast 284 327 18,200 1,597 Climbing Denver Center
Sun 12:11:07 PM 38.7447 -106.3567 62° Northeast 295 339 20,000 1,887 Climbing Denver Center
Sun 12:12:09 PM 38.7914 -106.2403 63° Northeast 307 353 22,100 1,887 Climbing Denver Center
Sun 12:13:11 PM 38.8314 -106.1411 63° Northeast 304 350 23,900 1,306 Climbing Denver Center
Sun 12:14:13 PM 38.8678 -106.0447 64° Northeast 313 360 24,800 919 Climbing Denver Center
Sun 12:15:15 PM 38.9111 -105.9361 63° Northeast 334 384 25,800 968 Climbing Denver Center
Sun 12:16:17 PM 38.9564 -105.8242 62° Northeast 352 405 26,800 1,065 Climbing Denver Center
Sun 12:17:19 PM 39.0100 -105.6858 63° Northeast 361 415 28,000 1,065 Climbing Denver Center
Sun 12:18:21 PM 39.0561 -105.5678 63° Northeast 369 425 29,000 968 Climbing Denver Center
Sun 12:19:23 PM 39.1025 -105.4497 63° Northeast 370 426 30,000 919 Climbing Denver Center
Sun 12:20:25 PM 39.1503 -105.3297 63° Northeast 376 433 30,900 912 Climbing Denver Center
Sun 12:21:28 PM 39.1967 -105.2108 63° Northeast 373 429 31,900 968 Climbing Denver Center
Sun 12:22:29 PM 39.2414 -105.0942 64° Northeast 365 420 32,900 919 Climbing Denver Center
Sun 12:23:32 PM 39.2958 -104.9531 63° Northeast 367 422 33,800 768 Climbing Denver Center
Sun 12:24:34 PM 39.3406 -104.8342 64° Northeast 370 426 34,500 677 Climbing Denver Center
Sun 12:25:36 PM 39.3850 -104.7164 64° Northeast 369 425 35,200 629 Climbing Denver Center
Sun 12:26:38 PM 39.4300 -104.5967 64° Northeast 377 434 35,800 537 Climbing Denver Center
Sun 12:27:39 PM 39.4753 -104.4767 64° Northeast 380 437 36,300 581 Climbing Denver Center
Sun 12:28:42 PM 39.5294 -104.3328 64° Northeast 375 432 37,000 336 Climbing Denver Center
Sun 12:29:44 PM 39.5753 -104.2069 65° Northeast 388 447 37,000  Level Denver Center
Sun 12:30:46 PM 39.6231 -104.0803 64° Northeast 393 452 37,000  Level Denver Center
Sun 12:31:48 PM 39.6711 -103.9453 65° Northeast 413 475 37,000  Level Denver Center
Sun 12:32:50 PM 39.7314 -103.7842 64° Northeast 417 480 37,000  Level Denver Center
Sun 12:33:52 PM 39.7811 -103.6486 64° Northeast 415 478 37,000  Level Denver Center
Sun 12:34:54 PM 39.8325 -103.5106 64° Northeast 424 488 37,000  Level Denver Center
Sun 12:35:56 PM 39.8831 -103.3703 61° Northeast 429 494 37,000  Level Denver Center
Sun 12:36:00 PM 39.8705 -103.3726 61° Northeast  Level FlightAware Approximate
Sun 12:36:58 PM 39.9244 -103.2578 64° Northeast 432 497 37,000  Level Denver Center
Sun 12:38:00 PM 39.9858 -103.0883 65° Northeast 431 496 37,000  Level Denver Center
Sun 12:39:02 PM 40.0461 -102.9167 65° Northeast 434 499 37,000  Level Denver Center
Sun 12:40:04 PM 40.0983 -102.7744 64° Northeast 435 501 37,000  Level Denver Center
Sun 12:41:06 PM 40.1497 -102.6278 65° Northeast 434 499 37,000  Level Denver Center
Sun 12:42:08 PM 40.1969 -102.4900 66° East 435 501 37,000  Level Denver Center
Sun 12:43:10 PM 40.2539 -102.3297 65° Northeast 436 502 37,000  Level Denver Center
Sun 12:44:12 PM 40.3028 -102.1914 65° Northeast 437 503 37,000  Level Denver Center
Sun 12:45:15 PM 40.3578 -102.0294 66° East 435 501 37,000  Level Denver Center
Sun 12:46:17 PM 40.4056 -101.8908 66° East 437 503 37,000  Level Denver Center
Sun 12:47:19 PM 40.4617 -101.7289 65° Northeast 437 503 37,000  Level Denver Center
Sun 12:48:21 PM 40.5100 -101.5908 65° Northeast 436 502 37,000  Level Denver Center
Sun 12:49:23 PM 40.5994 -101.4581 48° Northeast 432 497 37,000  Level Denver Center
Sun 12:50:25 PM 40.6750 -101.3431 49° Northeast 434 499 37,000  Level Denver Center
Sun 12:51:27 PM 40.7628 -101.2081 49° Northeast 434 499 37,000  Level Denver Center
Sun 12:52:29 PM 40.8417 -101.0947 47° Northeast 435 501 37,000  Level Denver Center
Sun 12:53:43 PM 40.9217 -100.9172 59° Northeast 443 510 37,000  Level Denver Center
Sun 12:54:45 PM 40.9664 -100.7706 68° East 439 505 37,000  Level Denver Center
Sun 12:55:47 PM 41.0125 -100.6239 67° East 443 510 37,000  Level Denver Center
Sun 12:56:49 PM 41.0639 -100.4564 68° East 439 505 37,000  Level Denver Center
Sun 12:57:51 PM 41.1081 -100.3133 68° East 438 504 37,000  Level Denver Center
Sun 12:58:53 PM 41.1603 -100.1447 68° East 440 506 37,000  Level Denver Center
Sun 12:59:55 PM 41.2042 -99.9997 68° East 441 507 37,000  Level Denver Center
Sun 01:00:58 PM 41.2553 -99.8311 68° East 441 507 37,000  Level Denver Center
Sun 01:02:00 PM 41.2989 -99.6867 68° East 441 507 37,000  Level Denver Center
Sun 01:03:02 PM 41.3467 -99.5317 68° East 440 506 37,000  Level Denver Center
Sun 01:04:04 PM 41.3919 -99.3792 68° East 441 507 37,000  Level Denver Center
Sun 01:05:06 PM 41.4372 -99.2272 68° East 439 505 37,000  Level Denver Center
Sun 01:06:08 PM 41.4817 -99.0742 69° East 439 505 37,000  Level Denver Center
Sun 01:07:10 PM 41.5264 -98.9217 69° East 437 503 37,000  Level Denver Center
Sun 01:08:12 PM 41.5797 -98.7394 69° East 436 502 37,000  Level Denver Center
Sun 01:09:14 PM 41.6239 -98.5878 69° East 435 501 37,000  Level Denver Center
Sun 01:10:16 PM 41.6669 -98.4369 69° East 433 498 37,000  Level Denver Center
Sun 01:11:32 PM 41.7189 -98.2572 69° East 430 495 37,000 -304 Level Minneapolis Center
Sun 01:12:34 PM 41.7667 -98.0894 69° East 431 496 36,300 -871 Descending Minneapolis Center
Sun 01:13:36 PM 41.8122 -97.9314 69° East 446 513 35,200 -1,016 Descending Minneapolis Center
Sun 01:14:38 PM 41.8569 -97.7731 69° East 452 520 34,200 -1,016 Descending Minneapolis Center
Sun 01:15:40 PM 41.9017 -97.6142 69° East 454 522 33,100 -1,016 Descending Minneapolis Center
Sun 01:16:42 PM 41.9450 -97.4544 70° East 456 525 32,100 -1,016 Descending Minneapolis Center
Sun 01:17:44 PM 41.9892 -97.2942 70° East 455 524 31,000 -532 Descending Minneapolis Center
Sun 01:18:46 PM 42.0325 -97.1369 70° East 452 520 31,000  Level Minneapolis Center
Sun 01:19:48 PM 42.0836 -96.9472 70° East 449 517 31,000  Level Minneapolis Center
Sun 01:20:50 PM 42.1256 -96.7919 70° East 443 510 31,000  Level Minneapolis Center
Sun 01:21:52 PM 42.1678 -96.6353 70° East 443 510 31,000  Level Minneapolis Center
Sun 01:22:54 PM 42.2103 -96.4775 70° East 444 511 31,000  Level Minneapolis Center
Sun 01:23:56 PM 42.2522 -96.3194 70° East 446 513 31,000  Level Minneapolis Center
Sun 01:24:58 PM 42.2942 -96.1614 70° East 446 513 31,000  Level Minneapolis Center
Sun 01:26:00 PM 42.3350 -96.0019 71° East 447 514 31,000  Level Minneapolis Center
Sun 01:27:02 PM 42.3858 -95.8078 70° East 454 522 31,000  Level Minneapolis Center
Sun 01:28:04 PM 42.4267 -95.6500 71° East 448 516 31,000  Level Minneapolis Center
Sun 01:29:06 PM 42.4594 -95.5194 71° East 451 519 31,000  Level Minneapolis Center
Sun 01:30:08 PM 42.5089 -95.3267 71° East 452 520 31,000  Level Minneapolis Center
Sun 01:31:10 PM 42.5494 -95.1678 71° East 448 516 31,000  Level Minneapolis Center
Sun 01:32:24 PM 42.5897 -95.0083 71° East 447 514 31,000  Level Minneapolis Center
Sun 01:33:27 PM 42.6431 -94.7872 72° East 442 509 31,000  Level Minneapolis Center
Sun 01:34:29 PM 42.6819 -94.6300 71° East 439 505 31,000  Level Minneapolis Center
Sun 01:35:31 PM 42.7206 -94.4753 71° East 440 506 31,000  Level Minneapolis Center
Sun 01:36:33 PM 42.7597 -94.3214 71° East 438 504 31,000  Level Minneapolis Center
Sun 01:37:35 PM 42.7950 -94.1667 73° East 436 502 31,000  Level Minneapolis Center
Sun 01:38:37 PM 42.8314 -94.0106 72° East 435 501 31,000  Level Minneapolis Center
Sun 01:39:39 PM 42.8681 -93.8561 72° East 434 499 31,000  Level Minneapolis Center
Sun 01:40:41 PM 42.9122 -93.6675 72° East 437 503 31,000  Level Minneapolis Center
Sun 01:41:43 PM 42.9497 -93.5117 72° East 437 503 31,000  Level Minneapolis Center
Sun 01:42:45 PM 42.9875 -93.3539 72° East 439 505 31,000  Level Minneapolis Center
Sun 01:43:47 PM 43.0250 -93.1969 72° East 439 505 31,000  Level Minneapolis Center
Sun 01:44:49 PM 43.0608 -93.0394 73° East 438 504 31,000  Level Minneapolis Center
Sun 01:45:51 PM 43.1033 -92.8500 73° East 437 503 31,000  Level Minneapolis Center
Sun 01:46:53 PM 43.1408 -92.6847 73° East 437 503 31,000  Level Minneapolis Center
Sun 01:47:55 PM 43.1750 -92.5344 73° East 436 502 31,000  Level Minneapolis Center
Sun 01:48:57 PM 43.2106 -92.3769 73° East 435 501 31,000  Level Minneapolis Center
Sun 01:49:59 PM 43.2456 -92.2189 73° East 435 501 31,000  Level Minneapolis Center
Sun 01:51:01 PM 43.2869 -92.0294 73° East 434 499 31,000  Level Minneapolis Center
Sun 01:52:16 PM 43.3292 -91.8403 73° East 433 498 31,000 -265 Level Minneapolis Center
Sun 01:53:17 PM 43.3564 -91.7128 74° East 434 499 30,400 -919 Descending Minneapolis Center
Sun 01:54:20 PM 43.3964 -91.5222 74° East 434 499 29,100 -1,139 Descending Minneapolis Center
Sun 01:55:34 PM 43.4364 -91.3353 74° East 431 496 27,800 -1,147 Descending Minneapolis Center
Sun 01:56:36 PM 43.4747 -91.1542 74° East 419 482 26,500 -1,113 Descending Minneapolis Center
Sun 01:57:38 PM 43.5067 -91.0025 74° East 415 478 25,500 -1,016 Descending Minneapolis Center
Sun 01:58:40 PM 43.5383 -90.8511 74° East 414 476 24,400 -726 Descending Minneapolis Center
Sun 01:59:42 PM 43.5622 -90.7322 74° East 411 473 24,000 -691 Descending Minneapolis Center
Sun 02:00:59 PM 43.6081 -90.5039 74° East 390 449 22,800 -1,122 Descending Chicago Center
Sun 02:02:01 PM 43.6361 -90.3686 74° East 375 432 21,400 -1,473 Descending Chicago Center
Sun 02:02:49 PM 43.6589 -90.2572 74° East 375 432 20,100 -818 Descending Minneapolis Center
Sun 02:03:51 PM 43.6889 -90.1108 74° East 362 417 19,900 -1,000 Descending Minneapolis Center
Sun 02:05:07 PM 43.7178 -89.9625 75° East 347 399 17,800 -1,652 Descending Chicago Center
Sun 02:06:09 PM 43.7419 -89.8403 75° East 335 386 16,100 -1,790 Descending Chicago Center
Sun 02:07:11 PM 43.7672 -89.7000 76° East 324 373 14,100 -1,790 Descending Chicago Center
Sun 02:08:13 PM 43.7919 -89.5794 74° East 323 372 12,400 -1,548 Descending Chicago Center
Sun 02:09:15 PM 43.8161 -89.4539 75° East 334 384 10,900 -726 Descending Chicago Center
Sun 02:10:17 PM 43.8392 -89.3308 75° East 331 381 10,900 -387 Level Chicago Center
Sun 02:11:19 PM 43.8636 -89.2075 75° East 329 379 10,100 -1,355 Descending Chicago Center
Sun 02:12:21 PM 43.8872 -89.0858 75° East 326 375 8,100 -1,935 Descending Chicago Center
Sun 02:13:23 PM 43.9125 -88.9483 76° East 317 365 6,100 -2,177 Descending Chicago Center
Sun 02:14:25 PM 43.9342 -88.8353 75° East 307 353 3,600 -1,548 Descending Chicago Center
Sun 02:15:27 PM 43.9611 -88.7411 68° East 286 329 2,900 -629 Descending Chicago Center
Sun 02:16:29 PM 44.0006 -88.6675 53° Northeast 253 291 2,300 -581 Descending Chicago Center
Sun 02:17:31 PM 44.0175 -88.6033 70° East 205 236 1,700 -581 Descending Chicago Center
Sun 02:18:33 PM 44.0019 -88.5636 119° Southeast 152 175 1,100 -581 Descending Chicago Center
Sun 02:20:00 PM 43.9833 -88.5500 71° East  Level FlightAware Approximate
Sun 02:27:00 PM 43.9845 -88.5569 71° East  Level Estimated

Login

Don't have an account? Register now (free) for customized features, flight alerts, and more!